createdAt,value
2023-04-14T00:08:35.710Z,20.7
2023-04-14T00:14:28.060Z,20.6
2023-04-14T00:20:21.158Z,20.6
2023-04-14T00:26:12.421Z,20.6
2023-04-14T00:37:40.861Z,20.6
2023-04-14T00:43:32.767Z,20.7
2023-04-14T00:49:24.176Z,20.7
2023-04-14T00:55:00.949Z,20.7
2023-04-14T01:00:37.705Z,20.8
2023-04-14T01:06:31.401Z,20.7
2023-04-14T01:12:22.622Z,20.7
2023-04-14T01:18:14.772Z,20.7
2023-04-14T01:29:42.539Z,20.7
2023-04-14T01:35:35.066Z,20.7
2023-04-14T01:41:26.644Z,20.7
2023-04-14T01:47:03.116Z,20.7
2023-04-14T01:52:55.909Z,20.7
2023-04-14T01:58:47.606Z,20.7
2023-04-14T02:04:40.607Z,20.7
2023-04-14T02:10:31.941Z,20.7
2023-04-14T02:16:22.925Z,20.7
2023-04-14T02:22:14.854Z,20.8
2023-04-14T02:28:06.385Z,20.8
2023-04-14T02:33:57.240Z,20.8
2023-04-14T02:39:48.361Z,20.8
2023-04-14T02:45:39.536Z,20.8
2023-04-14T02:51:31.333Z,20.8
2023-04-14T02:57:22.757Z,20.8
2023-04-14T03:03:15.571Z,20.8
2023-04-14T03:09:06.839Z,20.7
2023-04-14T03:14:42.855Z,20.8
2023-04-14T03:20:18.542Z,20.8
2023-04-14T03:26:10.928Z,20.7
2023-04-14T03:32:02.778Z,20.8
2023-04-14T03:37:54.155Z,20.7
2023-04-14T03:43:46.649Z,20.7
2023-04-14T03:49:42.987Z,20.7
2023-04-14T03:55:36.540Z,20.7
2023-04-14T04:01:28.498Z,20.7
2023-04-14T04:07:22.810Z,20.7
2023-04-14T04:13:14.910Z,20.7
2023-04-14T04:19:08.040Z,20.8
2023-04-14T04:24:59.459Z,20.8
2023-04-14T04:31:05.620Z,20.7
2023-04-14T04:36:58.481Z,20.7
2023-04-14T04:42:34.783Z,20.7
2023-04-14T04:48:10.961Z,20.7
2023-04-14T04:53:46.727Z,20.7
2023-04-14T05:04:46.353Z,20.8
2023-04-14T05:10:24.927Z,20.8
2023-04-14T05:16:01.421Z,20.8
2023-04-14T05:21:37.472Z,20.9
2023-04-14T05:27:51.856Z,20.9
2023-04-14T05:33:16.087Z,20.8
2023-04-14T05:38:52.744Z,20.9
2023-04-14T05:44:44.522Z,20.9
2023-04-14T05:50:20.898Z,20.9
2023-04-14T05:55:58.435Z,20.9
2023-04-14T06:01:52.702Z,20.9
2023-04-14T06:07:32.935Z,20.9
2023-04-14T06:13:24.615Z,20.8
2023-04-14T06:18:45.011Z,20.8
2023-04-14T06:24:37.006Z,20.9
2023-04-14T06:30:13.474Z,20.9
2023-04-14T06:36:18.880Z,20.9
2023-04-14T06:42:09.852Z,21
2023-04-14T06:48:03.162Z,21
2023-04-14T06:53:54.958Z,21.1
2023-04-14T06:59:47.081Z,20.9
2023-04-14T07:05:41.886Z,20.5
2023-04-14T07:11:33.586Z,20.3
2023-04-14T07:17:25.410Z,20.2
2023-04-14T07:23:03.427Z,20.3
2023-04-14T07:29:08.235Z,20.4
2023-04-14T07:35:00.605Z,20.6
2023-04-14T07:41:03.711Z,20.7
2023-04-14T07:46:39.798Z,20.8
2023-04-14T07:52:32.643Z,20.9
2023-04-14T07:58:32.014Z,20.9
2023-04-14T08:04:10.040Z,21
2023-04-14T08:10:02.018Z,21.1
2023-04-14T08:32:12.686Z,21.2
2023-04-14T08:39:04.088Z,21.2
2023-04-14T08:44:56.481Z,21.3
2023-04-14T08:50:49.820Z,21.3
2023-04-14T08:56:26.309Z,21.3
2023-04-14T09:02:19.670Z,21.3
2023-04-14T09:08:14.142Z,21.3
2023-04-14T09:14:05.389Z,21.4
2023-04-14T09:21:29.704Z,21.4
2023-04-14T09:27:43.734Z,21.4
2023-04-14T09:38:55.927Z,21.6
2023-04-14T09:44:47.480Z,21.6
2023-04-14T09:50:23.781Z,21.6
2023-04-14T09:56:17.030Z,21.6
2023-04-14T10:02:09.578Z,21.5
2023-04-14T10:07:48.234Z,21.5
2023-04-14T10:13:39.312Z,21.5
2023-04-14T10:19:31.706Z,21.5
2023-04-14T10:25:24.721Z,21.5
2023-04-14T10:31:18.391Z,21.5
2023-04-14T10:37:10.810Z,21.4
2023-04-14T10:42:46.469Z,21.4
2023-04-14T10:48:37.859Z,21.4
2023-04-14T11:00:22.312Z,21.4
2023-04-14T11:06:16.518Z,21.4
2023-04-14T11:12:07.510Z,21.4
2023-04-14T11:17:56.426Z,21.4
2023-04-14T11:23:48.448Z,21.4
2023-04-14T11:29:39.977Z,21.4
2023-04-14T11:35:33.484Z,21.3
2023-04-14T11:41:09.915Z,21.3
2023-04-14T11:47:01.941Z,21.3
2023-04-14T11:52:37.751Z,21.3
2023-04-14T11:58:29.734Z,21.3
2023-04-14T12:04:07.508Z,21.3
2023-04-14T12:09:47.362Z,21.3
2023-04-14T12:15:39.371Z,21.2
2023-04-14T12:20:45.334Z,21.2
2023-04-14T12:26:21.892Z,21.2
2023-04-14T12:32:13.944Z,21.2
2023-04-14T12:38:07.128Z,21.2
2023-04-14T12:43:43.002Z,21.2
2023-04-14T12:49:36.049Z,21.3
2023-04-14T12:55:27.944Z,21.3
2023-04-14T13:01:19.971Z,21.3
2023-04-14T13:07:15.963Z,21.4
2023-04-14T13:13:09.471Z,21.4
2023-04-14T13:19:57.299Z,21.4
2023-04-14T13:25:50.285Z,21.4
2023-04-14T13:31:26.954Z,21.4
2023-04-14T13:37:19.705Z,21.4
2023-04-14T13:43:13.931Z,21.4
2023-04-14T13:49:09.732Z,21.4
2023-04-14T13:55:01.341Z,21.4
2023-04-14T14:00:55.813Z,21.3
2023-04-14T14:06:51.312Z,21.3
2023-04-14T14:12:45.714Z,21.3
2023-04-14T14:18:32.347Z,21.3
2023-04-14T14:24:09.324Z,21.2
2023-04-14T14:30:13.460Z,21.2
2023-04-14T14:36:09.294Z,21.2
2023-04-14T14:42:01.928Z,21.2
2023-04-14T14:47:59.449Z,21.2
2023-04-14T14:54:09.102Z,21.2
2023-04-14T15:05:41.433Z,21.2
2023-04-14T15:11:32.986Z,21.2
2023-04-14T15:17:25.249Z,21.3
2023-04-14T15:23:16.800Z,21.3
2023-04-14T15:29:08.343Z,21.4
2023-04-14T15:35:00.405Z,21.4
2023-04-14T15:40:52.594Z,21.4
2023-04-14T15:46:46.697Z,21.5
2023-04-14T15:52:57.219Z,21.5
2023-04-14T15:58:49.368Z,21.6
2023-04-14T16:04:43.033Z,21.6
2023-04-14T16:10:35.110Z,21.6
2023-04-14T16:16:28.509Z,21.6
2023-04-14T16:22:21.633Z,21.6
2023-04-14T16:28:13.819Z,21.6
2023-04-14T16:34:05.745Z,21.6
2023-04-14T16:39:57.516Z,21.5
2023-04-14T16:45:48.734Z,21.5
2023-04-14T16:51:41.772Z,21.4
2023-04-14T16:57:33.750Z,21.4
2023-04-14T17:03:28.842Z,21.4
2023-04-14T17:09:23.154Z,21.3
2023-04-14T17:15:15.129Z,21.3
2023-04-14T17:21:16.025Z,21.3
2023-04-14T17:27:07.782Z,21.3
2023-04-14T17:32:59.749Z,21.3
2023-04-14T17:38:51.511Z,21.2
2023-04-14T17:44:43.151Z,21.2
2023-04-14T17:56:12.939Z,21.1
2023-04-14T18:02:05.002Z,21.1
2023-04-14T18:07:58.091Z,21
2023-04-14T18:13:49.761Z,20.9
2023-04-14T18:19:41.269Z,20.9
2023-04-14T18:31:50.501Z,20.8
2023-04-14T18:37:42.471Z,20.8
2023-04-14T18:43:34.017Z,20.8
2023-04-14T18:49:10.443Z,20.7
2023-04-14T18:55:03.863Z,20.7
2023-04-14T19:01:04.096Z,20.6
2023-04-14T19:06:41.453Z,20.6
2023-04-14T19:12:44.511Z,20.6
2023-04-14T19:18:21.253Z,20.6
2023-04-14T19:23:57.335Z,20.6
2023-04-14T19:35:11.629Z,20.6
2023-04-14T19:40:48.165Z,20.5
2023-04-14T19:46:39.890Z,20.5
2023-04-14T19:52:28.082Z,20.4
2023-04-14T19:58:21.295Z,20.4
2023-04-14T20:04:45.182Z,20.4
2023-04-14T20:10:36.705Z,20.4
2023-04-14T20:16:28.176Z,20.4
2023-04-14T20:22:20.468Z,20.4
2023-04-14T20:28:11.926Z,20.3
2023-04-14T20:34:04.389Z,20.3
2023-04-14T20:39:55.666Z,20.3
2023-04-14T20:45:46.712Z,20.3
2023-04-14T20:57:14.341Z,20.3
2023-04-14T21:03:05.994Z,20.3
2023-04-14T21:08:59.734Z,20.3
2023-04-14T21:18:55.457Z,20.3
2023-04-14T21:24:47.175Z,20.3
2023-04-14T21:30:38.284Z,20.4
2023-04-14T21:36:14.260Z,20.4
2023-04-14T21:47:41.640Z,20.4
2023-04-14T21:53:34.956Z,20.4
2023-04-14T22:00:16.541Z,20.4
2023-04-14T22:06:19.831Z,20.5
2023-04-14T22:12:12.277Z,20.5
2023-04-14T22:17:49.201Z,20.6
2023-04-14T22:23:24.917Z,20.6
2023-04-14T22:29:16.886Z,20.6
2023-04-14T22:40:29.783Z,20.6
2023-04-14T22:46:21.554Z,20.6
2023-04-14T22:52:14.048Z,20.6
2023-04-14T22:58:11.546Z,20.7
2023-04-14T23:04:15.449Z,20.7
2023-04-14T23:10:07.907Z,20.7
2023-04-14T23:15:58.872Z,20.7
2023-04-14T23:21:49.483Z,20.8
2023-04-14T23:27:41.781Z,20.8
2023-04-14T23:33:17.945Z,20.8
2023-04-14T23:39:09.650Z,20.8
2023-04-14T23:45:00.962Z,20.8
2023-04-14T23:51:51.348Z,20.8
2023-04-14T23:57:27.601Z,20.8
